ENSB/LYR METAR and TAF weather

Enter ICAO airport designator
Station Type Date Time Source
ENSB METAR 2021/05/14 06:50 UTC NOAA

ENSB 140650Z 25015KT 9999 VCSH FEW020 SCT030 BKN045 M01/M06 Q1018 NOSIG RMK WIND 1400FT 24017G34KT


Station Type Date Time Source
ENSB Decoded METAR 2021/05/14 06:50 UTC NOAA

Svalbard Lufthavn, Norway (ENSB) 78-15N 015-28E 29M
May 14, 2021 - 02:50 AM EDT / 2021.05.14 0650 UTC
Wind: from the WSW (250 degrees) at 17 MPH (15 KT):0
Visibility: greater than 7 mile(s):0
Sky conditions: mostly cloudy
Weather: showers in the vicinity
Temperature: 30 F (-1 C)
Windchill: 17 F (-8 C):1
Dew Point: 21 F (-6 C)
Relative Humidity: 68%
Pressure (altimeter): 30.06 in. Hg (1018 hPa)
ob: ENSB 140650Z 25015KT 9999 VCSH FEW020 SCT030 BKN045 M01/M06 Q1018 NOSIG RMK WIND 1400FT 24017G34KT
cycle: 7

Station Type Date Time Source
ENSB TAF 2021/05/14 06:57 UTC NOAA

TAF ENSB 140500Z 1406/1506 24009KT 9999 FEW020 SCT040

Example: see airport list